createdAt,value
2016-05-08T00:00:23.022Z,0
2016-05-08T00:01:23.057Z,0
2016-05-08T00:02:23.090Z,0
2016-05-08T00:03:23.140Z,0
2016-05-08T00:04:23.033Z,0
2016-05-08T00:05:23.224Z,0
2016-05-08T00:06:23.257Z,0
2016-05-08T00:07:23.291Z,0
2016-05-08T00:08:23.326Z,0
2016-05-08T00:09:23.390Z,0
2016-05-08T00:10:23.409Z,0
2016-05-08T00:11:23.287Z,0
2016-05-08T00:12:23.351Z,0
2016-05-08T00:13:23.354Z,0
2016-05-08T00:14:23.404Z,0
2016-05-08T00:15:23.437Z,0
2016-05-08T00:16:23.487Z,0
2016-05-08T00:17:23.522Z,0
2016-05-08T00:18:23.728Z,0
2016-05-08T00:19:23.605Z,0
2016-05-08T00:20:23.780Z,0
2016-05-08T00:21:23.672Z,0
2016-05-08T00:22:23.706Z,0
2016-05-08T00:23:23.945Z,0
2016-05-08T00:24:23.797Z,0
2016-05-08T00:25:23.988Z,0
2016-05-08T00:26:23.990Z,0
2016-05-08T00:27:24.852Z,0
2016-05-08T00:28:23.948Z,0
2016-05-08T00:29:24.124Z,0
2016-05-08T00:30:24.032Z,0
2016-05-08T00:31:23.910Z,0
2016-05-08T00:32:24.085Z,0
2016-05-08T00:33:24.275Z,0
2016-05-08T00:34:24.323Z,0
2016-05-08T00:35:24.420Z,0
2016-05-08T00:36:24.392Z,0
2016-05-08T00:37:24.286Z,0
2016-05-08T00:38:24.476Z,0
2016-05-08T00:39:24.509Z,0
2016-05-08T00:40:24.387Z,0
2016-05-08T00:41:24.608Z,0
2016-05-08T00:42:24.627Z,0
2016-05-08T00:43:24.536Z,0
2016-05-08T00:44:24.695Z,0
2016-05-08T00:45:24.588Z,0
2016-05-08T00:46:24.622Z,0
2016-05-08T00:47:24.656Z,0
2016-05-08T00:48:24.706Z,0
2016-05-08T00:49:24.896Z,0
2016-05-08T00:50:24.774Z,0
2016-05-08T00:51:24.963Z,0
2016-05-08T00:52:25.013Z,0
2016-05-08T00:53:25.031Z,0
2016-05-08T00:54:25.066Z,0
2016-05-08T00:55:24.959Z,0
2016-05-08T00:56:25.024Z,0
2016-05-08T00:57:25.042Z,0
2016-05-08T00:58:24.920Z,0
2016-05-08T00:59:25.265Z,0
2016-05-08T01:00:25.301Z,0
2016-05-08T01:01:25.194Z,0
2016-05-08T01:02:25.228Z,0
2016-05-08T01:03:25.417Z,0
2016-05-08T01:04:25.312Z,0
2016-05-08T01:05:25.345Z,0
2016-05-08T01:06:25.364Z,0
2016-05-08T01:07:25.570Z,0
2016-05-08T01:08:25.447Z,0
2016-05-08T01:09:25.636Z,0
2016-05-08T01:10:25.670Z,0
2016-05-08T01:11:25.720Z,0
2016-05-08T01:12:25.770Z,0
2016-05-08T01:13:25.836Z,0
2016-05-08T01:14:25.681Z,0
2016-05-08T01:15:25.559Z,0
2016-05-08T01:16:25.766Z,0
2016-05-08T01:17:25.940Z,0
2016-05-08T01:18:25.833Z,0
2016-05-08T01:19:26.024Z,0
2016-05-08T01:20:25.901Z,0
2016-05-08T01:21:25.935Z,0
2016-05-08T01:22:26.141Z,0
2016-05-08T01:23:26.191Z,0
2016-05-08T01:24:26.208Z,0
2016-05-08T01:25:26.259Z,0
2016-05-08T01:26:26.293Z,0
2016-05-08T01:27:26.202Z,0
2016-05-08T01:28:26.376Z,0
2016-05-08T01:29:26.223Z,0
2016-05-08T01:30:26.429Z,0
2016-05-08T01:31:26.322Z,0
2016-05-08T01:32:26.355Z,0
2016-05-08T01:33:26.234Z,0
2016-05-08T01:34:26.611Z,0
2016-05-08T01:35:26.614Z,0
2016-05-08T01:36:26.351Z,0
2016-05-08T01:37:26.541Z,0
2016-05-08T01:38:26.746Z,0
2016-05-08T01:39:26.766Z,0
2016-05-08T01:40:26.815Z,0
2016-05-08T01:41:26.865Z,0
2016-05-08T01:42:26.789Z,0
2016-05-08T01:43:26.917Z,0
2016-05-08T01:44:26.967Z,0
2016-05-08T01:45:27.001Z,0
2016-05-08T01:46:26.878Z,0
2016-05-08T01:47:27.068Z,0
2016-05-08T01:48:26.962Z,0
2016-05-08T01:49:26.839Z,0
2016-05-08T01:50:27.029Z,0
2016-05-08T01:51:27.064Z,0
2016-05-08T01:52:27.253Z,0
2016-05-08T01:53:27.303Z,0
2016-05-08T01:54:27.337Z,0
2016-05-08T01:55:27.215Z,0
2016-05-08T01:56:27.405Z,0
2016-05-08T01:57:27.455Z,0
2016-05-08T01:58:27.550Z,0
2016-05-08T01:59:27.538Z,0
2016-05-08T02:00:27.400Z,0
2016-05-08T02:01:27.497Z,0
2016-05-08T02:02:27.484Z,0
2016-05-08T02:03:27.658Z,0
2016-05-08T02:04:27.707Z,0
2016-05-08T02:05:27.757Z,0
2016-05-08T02:06:27.479Z,0
2016-05-08T02:07:27.825Z,0
2016-05-08T02:08:27.875Z,0
2016-05-08T02:09:27.909Z,0
2016-05-08T02:10:27.770Z,0
2016-05-08T02:11:27.961Z,0
2016-05-08T02:12:28.496Z,0
2016-05-08T02:13:27.888Z,0
2016-05-08T02:14:28.079Z,0
2016-05-08T02:15:28.112Z,0
2016-05-08T02:16:28.146Z,0
2016-05-08T02:17:28.039Z,0
2016-05-08T02:18:28.074Z,0
2016-05-08T02:19:28.123Z,0
2016-05-08T02:20:27.985Z,0
2016-05-08T02:21:28.331Z,0
2016-05-08T02:22:28.381Z,0
2016-05-08T02:23:28.259Z,0
2016-05-08T02:24:28.450Z,0
2016-05-08T02:26:28.548Z,0
2016-05-08T02:27:28.722Z,0
2016-05-08T02:28:28.288Z,0
2016-05-08T02:29:28.634Z,0
2016-05-08T02:30:28.528Z,0
2016-05-08T02:31:28.718Z,0
2016-05-08T02:32:28.752Z,0
2016-05-08T02:33:28.802Z,0
2016-05-08T02:34:28.819Z,0
2016-05-08T02:35:28.869Z,0
2016-05-08T02:36:28.888Z,0
2016-05-08T02:37:28.921Z,0
2016-05-08T02:38:28.846Z,0
2016-05-08T02:39:28.849Z,0
2016-05-08T02:40:29.038Z,0
2016-05-08T02:41:29.073Z,0
2016-05-08T02:42:29.406Z,0
2016-05-08T02:43:29.080Z,0
2016-05-08T02:44:29.317Z,0
2016-05-08T02:45:29.399Z,0
2016-05-08T02:46:29.496Z,0
2016-05-08T02:47:29.542Z,0
2016-05-08T02:48:29.453Z,0
2016-05-08T02:49:29.519Z,0
2016-05-08T02:50:29.571Z,0
2016-05-08T02:51:29.653Z,0
2016-05-08T02:52:29.806Z,0
2016-05-08T02:53:29.877Z,0
2016-05-08T02:54:29.903Z,0
2016-05-08T02:55:29.958Z,0
2016-05-08T02:56:29.684Z,0
2016-05-08T02:57:29.895Z,0
2016-05-08T02:58:30.087Z,0
2016-05-08T02:59:29.936Z,0
2016-05-08T03:00:30.160Z,0
2016-05-08T03:01:30.040Z,0
2016-05-08T03:02:30.075Z,0
2016-05-08T03:03:30.265Z,0
2016-05-08T03:04:30.315Z,0
2016-05-08T03:05:30.350Z,0
2016-05-08T03:06:30.370Z,0
2016-05-08T03:07:30.279Z,0
2016-05-08T03:08:30.454Z,0
2016-05-08T03:09:30.348Z,0
2016-05-08T03:10:30.507Z,0
2016-05-08T03:11:30.557Z,0
2016-05-08T03:12:30.935Z,0
2016-05-08T03:13:30.469Z,0
2016-05-08T03:14:30.518Z,0
2016-05-08T03:15:30.693Z,0
2016-05-08T03:16:30.586Z,0
2016-05-08T03:17:30.793Z,0
2016-05-08T03:18:30.654Z,0
2016-05-08T03:19:30.876Z,0
2016-05-08T03:20:30.878Z,0
2016-05-08T03:21:30.929Z,0
2016-05-08T03:22:30.962Z,0
2016-05-08T03:23:30.856Z,0
2016-05-08T03:24:30.889Z,0
2016-05-08T03:25:31.064Z,0
2016-05-08T03:26:31.128Z,0
2016-05-08T03:27:31.601Z,0
2016-05-08T03:28:31.181Z,0
2016-05-08T03:29:31.215Z,0
2016-05-08T03:30:31.280Z,0
2016-05-08T03:31:31.299Z,0
2016-05-08T03:32:31.332Z,0
2016-05-08T03:33:31.367Z,0
2016-05-08T03:34:31.400Z,0
2016-05-08T03:35:31.277Z,0
2016-05-08T03:36:31.469Z,0
2016-05-08T03:37:31.518Z,0
2016-05-08T03:38:31.396Z,0
2016-05-08T03:39:31.585Z,0
2016-05-08T03:40:31.619Z,0
2016-05-08T03:41:31.669Z,5
2016-05-08T03:42:31.687Z,5
2016-05-08T03:43:31.566Z,5
2016-05-08T03:44:31.755Z,5
2016-05-08T03:45:31.805Z,5
2016-05-08T03:46:31.838Z,5
2016-05-08T03:47:31.888Z,5
2016-05-08T03:48:31.907Z,5
2016-05-08T03:49:31.801Z,5
2016-05-08T03:50:32.006Z,5
2016-05-08T03:51:31.884Z,10
2016-05-08T03:52:32.058Z,10
2016-05-08T03:53:32.107Z,10
2016-05-08T03:54:32.126Z,10
2016-05-08T03:55:32.160Z,10
2016-05-08T03:56:32.225Z,10
2016-05-08T03:57:32.681Z,15
2016-05-08T03:58:32.293Z,15
2016-05-08T03:59:32.311Z,15
2016-05-08T04:00:32.392Z,15
2016-05-08T04:01:32.395Z,15
2016-05-08T04:03:32.447Z,20
2016-05-08T04:04:32.497Z,20
2016-05-08T04:05:32.530Z,20
2016-05-08T04:06:32.564Z,20
2016-05-08T04:07:32.599Z,20
2016-05-08T04:08:32.633Z,25
2016-05-08T04:09:32.697Z,25
2016-05-08T04:10:32.716Z,25
2016-05-08T04:11:32.781Z,25
2016-05-08T04:12:33.034Z,30
2016-05-08T04:13:32.661Z,30
2016-05-08T04:14:32.868Z,30
2016-05-08T04:15:32.901Z,30
2016-05-08T04:16:32.935Z,30
2016-05-08T04:17:32.985Z,35
2016-05-08T04:18:32.847Z,35
2016-05-08T04:19:42.462Z,35
2016-05-08T04:20:32.915Z,35
2016-05-08T04:21:32.965Z,40
2016-05-08T04:22:33.155Z,40
2016-05-08T04:23:33.032Z,45
2016-05-08T04:24:33.097Z,45
2016-05-08T04:25:33.256Z,50
2016-05-08T04:26:33.290Z,50
2016-05-08T04:27:34.028Z,55
2016-05-08T04:28:33.359Z,55
2016-05-08T04:29:33.408Z,60
2016-05-08T04:30:33.441Z,70
2016-05-08T04:31:33.319Z,70
2016-05-08T04:32:33.229Z,80
2016-05-08T04:33:33.387Z,90
2016-05-08T04:34:33.592Z,95
2016-05-08T04:35:33.627Z,95
2016-05-08T04:36:33.660Z,95
2016-05-08T04:37:33.539Z,100
2016-05-08T04:38:33.744Z,100
2016-05-08T04:39:33.778Z,100
2016-05-08T04:40:33.812Z,90
2016-05-08T04:41:33.847Z,90
2016-05-08T04:42:34.161Z,90
2016-05-08T04:43:33.929Z,90
2016-05-08T04:44:33.807Z,90
2016-05-08T04:45:33.842Z,90
2016-05-08T04:46:34.046Z,95
2016-05-08T04:47:34.082Z,95
2016-05-08T04:48:33.959Z,95
2016-05-08T04:49:34.132Z,95
2016-05-08T04:50:33.870Z,95
2016-05-08T04:51:34.218Z,95
2016-05-08T04:52:34.110Z,95
2016-05-08T04:53:34.285Z,100
2016-05-08T04:54:34.178Z,100
2016-05-08T04:55:34.228Z,100
2016-05-08T04:56:34.401Z,100
2016-05-08T04:57:34.265Z,105
2016-05-08T04:58:34.486Z,100
2016-05-08T04:59:34.519Z,100
2016-05-08T05:00:34.397Z,100
2016-05-08T05:01:34.447Z,100
2016-05-08T05:02:34.637Z,100
2016-05-08T05:03:34.671Z,100
2016-05-08T05:04:34.720Z,100
2016-05-08T05:05:34.598Z,100
2016-05-08T05:06:34.772Z,100
2016-05-08T05:07:34.838Z,100
2016-05-08T05:08:34.716Z,100
2016-05-08T05:09:34.891Z,100
2016-05-08T05:10:34.924Z,100
2016-05-08T05:11:34.817Z,105
2016-05-08T05:12:34.711Z,105
2016-05-08T05:13:35.041Z,105
2016-05-08T05:14:35.107Z,105
2016-05-08T05:15:35.110Z,105
2016-05-08T05:16:35.002Z,110
2016-05-08T05:17:35.193Z,110
2016-05-08T05:18:35.071Z,110
2016-05-08T05:19:35.276Z,105
2016-05-08T05:20:35.154Z,105
2016-05-08T05:21:35.344Z,105
2016-05-08T05:22:35.394Z,105
2016-05-08T05:23:35.443Z,105
2016-05-08T05:24:35.462Z,105
2016-05-08T05:25:35.496Z,110
2016-05-08T05:26:35.546Z,110
2016-05-08T05:27:35.439Z,110
2016-05-08T05:28:35.613Z,110
2016-05-08T05:29:35.647Z,110
2016-05-08T05:30:35.681Z,110
2016-05-08T05:31:35.590Z,110
2016-05-08T05:32:35.749Z,115
2016-05-08T05:33:35.798Z,115
2016-05-08T05:34:35.848Z,115
2016-05-08T05:35:35.867Z,120
2016-05-08T05:36:35.917Z,120
2016-05-08T05:37:35.950Z,120
2016-05-08T05:38:35.983Z,125
2016-05-08T05:39:36.080Z,125
2016-05-08T05:40:36.067Z,125
2016-05-08T05:41:35.945Z,125
2016-05-08T05:42:36.245Z,125
2016-05-08T05:43:35.872Z,125
2016-05-08T05:44:36.202Z,125
2016-05-08T05:45:36.112Z,125
2016-05-08T05:46:36.287Z,125
2016-05-08T05:47:36.180Z,125
2016-05-08T05:48:36.371Z,125
2016-05-08T05:49:36.404Z,125
2016-05-08T05:50:36.282Z,120
2016-05-08T05:51:36.471Z,120
2016-05-08T05:52:36.366Z,120
2016-05-08T05:53:36.555Z,120
2016-05-08T05:54:36.449Z,120
2016-05-08T05:55:36.623Z,125
2016-05-08T05:56:36.673Z,125
2016-05-08T05:57:37.050Z,120
2016-05-08T05:58:36.740Z,120
2016-05-08T05:59:36.790Z,120
2016-05-08T06:00:36.824Z,120
2016-05-08T06:01:36.873Z,120
2016-05-08T06:02:36.767Z,120
2016-05-08T06:03:36.926Z,125
2016-05-08T06:04:36.820Z,125
2016-05-08T06:05:37.010Z,125
2016-05-08T06:06:37.059Z,125
2016-05-08T06:07:36.764Z,125
2016-05-08T06:08:37.142Z,125
2016-05-08T06:09:37.161Z,125
2016-05-08T06:10:37.194Z,125
2016-05-08T06:11:37.245Z,130
2016-05-08T06:12:37.981Z,135
2016-05-08T06:13:37.313Z,150
2016-05-08T06:14:37.347Z,150
2016-05-08T06:15:37.396Z,165
2016-05-08T06:16:37.430Z,150
2016-05-08T06:17:37.463Z,135
2016-05-08T06:18:37.357Z,135
2016-05-08T06:19:37.235Z,130
2016-05-08T06:20:37.582Z,130
2016-05-08T06:21:37.615Z,135
2016-05-08T06:22:37.665Z,135
2016-05-08T06:23:37.698Z,130
2016-05-08T06:24:37.732Z,130
2016-05-08T06:25:37.798Z,130
2016-05-08T06:26:37.815Z,130
2016-05-08T06:27:37.554Z,130
2016-05-08T06:28:37.884Z,130
2016-05-08T06:29:37.777Z,135
2016-05-08T06:30:37.654Z,135
2016-05-08T06:31:37.689Z,135
2016-05-08T06:32:37.895Z,165
2016-05-08T06:33:37.928Z,165
2016-05-08T06:34:37.947Z,140
2016-05-08T06:35:37.684Z,140
2016-05-08T06:36:38.046Z,140
2016-05-08T06:37:38.236Z,140
2016-05-08T06:38:38.286Z,140
2016-05-08T06:39:38.147Z,140
2016-05-08T06:40:38.181Z,145
2016-05-08T06:41:38.231Z,155
2016-05-08T06:42:38.266Z,160
2016-05-08T06:43:38.456Z,155
2016-05-08T06:44:38.505Z,160
2016-05-08T06:45:38.524Z,165
2016-05-08T06:46:38.573Z,225
2016-05-08T06:47:38.607Z,170
2016-05-08T06:48:38.657Z,145
2016-05-08T06:49:38.691Z,145
2016-05-08T06:50:38.724Z,145
2016-05-08T06:51:38.758Z,145
2016-05-08T06:52:38.652Z,145
2016-05-08T06:53:38.686Z,145
2016-05-08T06:54:38.891Z,145
2016-05-08T06:55:38.926Z,145
2016-05-08T06:56:38.959Z,150
2016-05-08T06:57:38.681Z,155
2016-05-08T06:58:38.870Z,145
2016-05-08T06:59:38.748Z,145
2016-05-08T07:00:39.110Z,150
2016-05-08T07:01:39.160Z,150
2016-05-08T07:02:39.195Z,150
2016-05-08T07:03:38.915Z,150
2016-05-08T07:04:39.262Z,150
2016-05-08T07:05:38.999Z,150
2016-05-08T07:06:39.361Z,150
2016-05-08T07:07:39.239Z,150
2016-05-08T07:08:39.444Z,150
2016-05-08T07:09:39.463Z,150
2016-05-08T07:10:39.341Z,150
2016-05-08T07:11:39.218Z,155
2016-05-08T07:12:39.517Z,155
2016-05-08T07:13:39.599Z,155
2016-05-08T07:14:39.492Z,155
2016-05-08T07:15:39.683Z,155
2016-05-08T07:16:39.716Z,155
2016-05-08T07:17:39.610Z,155
2016-05-08T07:18:39.783Z,160
2016-05-08T07:19:39.849Z,160
2016-05-08T07:20:39.883Z,165
2016-05-08T07:21:39.760Z,175
2016-05-08T07:22:39.952Z,175
2016-05-08T07:23:39.844Z,160
2016-05-08T07:24:40.035Z,165
2016-05-08T07:25:40.085Z,165
2016-05-08T07:26:40.134Z,165
2016-05-08T07:27:40.465Z,165
2016-05-08T07:28:40.030Z,165
2016-05-08T07:29:40.079Z,160
2016-05-08T07:30:40.269Z,165
2016-05-08T07:31:40.304Z,165
2016-05-08T07:32:40.196Z,185
2016-05-08T07:33:40.231Z,180
2016-05-08T07:34:40.437Z,170
2016-05-08T07:35:40.298Z,180
2016-05-08T07:36:40.364Z,175
2016-05-08T07:37:40.539Z,220
2016-05-08T07:38:40.604Z,315
2016-05-08T07:39:40.622Z,305
2016-05-08T07:40:40.514Z,270
2016-05-08T07:41:40.690Z,225
2016-05-08T07:42:42.083Z,275
2016-05-08T07:43:40.773Z,220
2016-05-08T07:44:40.822Z,260
2016-05-08T07:45:40.700Z,280
2016-05-08T07:46:40.891Z,755
2016-05-08T07:47:40.941Z,740
2016-05-08T07:48:40.818Z,445
2016-05-08T07:49:41.038Z,305
2016-05-08T07:50:40.885Z,385
2016-05-08T07:51:40.935Z,1070
2016-05-08T07:52:40.985Z,1365
2016-05-08T07:53:41.175Z,1385
2016-05-08T07:54:41.209Z,1375
2016-05-08T07:55:41.258Z,1365
2016-05-08T07:56:41.136Z,1365
2016-05-08T07:57:41.045Z,1370
2016-05-08T07:58:41.391Z,1390
2016-05-08T07:59:41.441Z,1390
2016-05-08T08:00:41.475Z,1400
2016-05-08T08:01:41.228Z,1395
2016-05-08T08:02:41.559Z,1395
2016-05-08T08:03:41.436Z,1405
2016-05-08T08:04:41.642Z,1415
2016-05-08T08:05:41.676Z,1410
2016-05-08T08:06:41.726Z,1395
2016-05-08T08:07:41.775Z,1390
2016-05-08T08:08:41.653Z,1395
2016-05-08T08:09:41.875Z,1400
2016-05-08T08:10:41.752Z,1380
2016-05-08T08:11:41.942Z,1360
2016-05-08T08:12:42.117Z,1350
2016-05-08T08:13:42.041Z,1370
2016-05-08T08:14:42.091Z,1370
2016-05-08T08:15:42.125Z,1345
2016-05-08T08:16:42.190Z,1355
2016-05-08T08:17:42.224Z,1410
2016-05-08T08:18:42.274Z,1480
2016-05-08T08:19:42.011Z,1495
2016-05-08T08:20:42.372Z,1420
2016-05-08T08:21:42.407Z,1340
2016-05-08T08:22:42.316Z,1260
2016-05-08T08:23:42.505Z,1200
2016-05-08T08:24:42.555Z,1200
2016-05-08T08:25:42.464Z,1230
2016-05-08T08:26:42.482Z,1220
2016-05-08T08:27:42.954Z,1135
2016-05-08T08:28:42.738Z,1045
2016-05-08T08:29:42.788Z,985
2016-05-08T08:30:42.852Z,965
2016-05-08T08:31:42.918Z,975
2016-05-08T08:32:42.624Z,1035
2016-05-08T08:33:42.970Z,1095
2016-05-08T08:34:42.879Z,1115
2016-05-08T08:35:43.084Z,1120
2016-05-08T08:36:42.962Z,1130
2016-05-08T08:37:43.168Z,1170
2016-05-08T08:38:43.078Z,1285
2016-05-08T08:39:43.111Z,1420
2016-05-08T08:40:43.161Z,1525
2016-05-08T08:41:43.382Z,1585
2016-05-08T08:42:43.292Z,1630
2016-05-08T08:43:43.309Z,1675
2016-05-08T08:44:43.389Z,1680
2016-05-08T08:45:43.549Z,1680
2016-05-08T08:46:43.442Z,1685
2016-05-08T08:47:43.508Z,1700
2016-05-08T08:48:43.697Z,1705
2016-05-08T08:49:43.763Z,1700
2016-05-08T08:50:43.797Z,1705
2016-05-08T08:51:43.534Z,1640
2016-05-08T08:52:43.911Z,460
2016-05-08T08:53:43.633Z,305
2016-05-08T08:54:43.995Z,330
2016-05-08T08:55:44.060Z,570
2016-05-08T08:56:43.954Z,660
2016-05-08T08:57:45.206Z,740
2016-05-08T08:58:44.053Z,390
2016-05-08T08:59:44.243Z,1595
2016-05-08T09:00:44.293Z,1640
2016-05-08T09:01:44.171Z,1670
2016-05-08T09:02:44.392Z,1455
2016-05-08T09:03:44.426Z,955
2016-05-08T09:04:44.490Z,355
2016-05-08T09:05:44.540Z,410
2016-05-08T09:06:44.574Z,570
2016-05-08T09:07:44.483Z,440
2016-05-08T09:08:44.674Z,905
2016-05-08T09:09:44.707Z,1145
2016-05-08T09:10:44.600Z,860
2016-05-08T09:11:44.495Z,775
2016-05-08T09:12:44.762Z,1140
2016-05-08T09:13:44.890Z,1630
2016-05-08T09:14:44.939Z,1800
2016-05-08T09:15:44.973Z,1805
2016-05-08T09:16:45.055Z,1825
2016-05-08T09:17:45.088Z,1860
2016-05-08T09:18:44.966Z,1835
2016-05-08T09:19:45.452Z,1765
2016-05-08T09:20:45.222Z,1715
2016-05-08T09:21:45.115Z,1675
2016-05-08T09:22:45.305Z,1610
2016-05-08T09:23:45.370Z,1590
2016-05-08T09:24:45.451Z,1655
2016-05-08T09:25:45.313Z,1725
2016-05-08T09:26:45.503Z,1790
2016-05-08T09:27:45.646Z,1860
2016-05-08T09:28:45.446Z,1920
2016-05-08T09:29:45.340Z,1945
2016-05-08T09:30:45.546Z,1950
2016-05-08T09:31:45.595Z,1940
2016-05-08T09:32:45.801Z,1900
2016-05-08T09:33:45.865Z,1840
2016-05-08T09:34:45.916Z,1840
2016-05-08T09:35:45.949Z,1830
2016-05-08T09:36:45.858Z,1865
2016-05-08T09:38:16.770Z,1940
2016-05-08T09:38:46.098Z,1925
2016-05-08T09:39:46.132Z,1915
2016-05-08T09:40:46.025Z,1905
2016-05-08T09:41:46.122Z,1895
2016-05-08T09:42:46.312Z,1880
2016-05-08T09:43:46.345Z,1890
2016-05-08T09:44:46.239Z,1935
2016-05-08T09:45:46.303Z,1915
2016-05-08T09:46:46.525Z,1930
2016-05-08T09:47:46.389Z,1950
2016-05-08T09:48:46.422Z,1940
2016-05-08T09:49:46.487Z,1965
2016-05-08T09:50:46.536Z,1990
2016-05-08T09:51:46.777Z,1985
2016-05-08T09:52:46.794Z,1975
2016-05-08T09:53:46.544Z,1940
2016-05-08T09:54:46.909Z,1910
2016-05-08T09:55:46.944Z,1890
2016-05-08T09:56:46.821Z,1905
2016-05-08T09:57:47.246Z,1925
2016-05-08T09:58:47.092Z,1975
2016-05-08T09:59:47.016Z,2025
2016-05-08T10:00:47.019Z,2015
2016-05-08T10:01:47.084Z,2040
2016-05-08T10:02:47.306Z,2065
2016-05-08T10:03:47.184Z,2065
2016-05-08T10:04:47.233Z,2050
2016-05-08T10:05:47.439Z,2035
2016-05-08T10:06:47.504Z,2015
2016-05-08T10:07:47.538Z,2015
2016-05-08T10:08:47.603Z,2025
2016-05-08T10:09:47.653Z,2010
2016-05-08T10:10:47.686Z,2010
2016-05-08T10:11:47.580Z,1970
2016-05-08T10:12:47.818Z,1980
2016-05-08T10:13:47.835Z,1990
2016-05-08T10:14:47.901Z,1985
2016-05-08T10:15:47.934Z,1975
2016-05-08T10:16:47.844Z,2005
2016-05-08T10:17:48.034Z,2020
2016-05-08T10:18:47.958Z,2015
2016-05-08T10:19:48.023Z,1980
2016-05-08T10:20:48.026Z,1960
2016-05-08T10:21:48.091Z,1970
2016-05-08T10:22:48.313Z,1980
2016-05-08T10:23:48.201Z,2010
2016-05-08T10:24:48.408Z,2050
2016-05-08T10:25:48.300Z,2075
2016-05-08T10:26:48.350Z,2090
2016-05-08T10:27:48.508Z,2120
2016-05-08T10:28:48.464Z,2110
2016-05-08T10:29:48.499Z,2095
2016-05-08T10:30:48.533Z,2045
2016-05-08T10:31:48.738Z,1995
2016-05-08T10:32:48.804Z,1960
2016-05-08T10:33:48.853Z,1935
2016-05-08T10:34:59.621Z,1910
2016-05-08T10:35:48.655Z,1880
2016-05-08T10:36:49.017Z,1880
2016-05-08T10:37:49.067Z,1880
2016-05-08T10:38:48.960Z,1865
2016-05-08T10:39:48.853Z,1850
2016-05-08T10:40:49.215Z,1825
2016-05-08T10:41:49.265Z,1785
2016-05-08T10:42:50.018Z,1775
2016-05-08T10:43:51.629Z,1775
2016-05-08T10:44:49.445Z,1785
2016-05-08T10:45:49.307Z,1785
2016-05-08T10:46:49.373Z,1780
2016-05-08T10:47:49.578Z,1790
2016-05-08T10:48:49.628Z,1760
2016-05-08T10:49:49.678Z,1745
2016-05-08T10:50:49.587Z,1760
2016-05-08T10:51:49.776Z,1845
2016-05-08T10:52:49.686Z,1895
2016-05-08T10:53:49.719Z,1950
2016-05-08T10:54:49.925Z,1970
2016-05-08T10:55:49.975Z,1990
2016-05-08T10:56:49.884Z,2025
2016-05-08T10:57:50.261Z,2010
2016-05-08T10:58:49.983Z,2005
2016-05-08T10:59:50.033Z,2035
2016-05-08T11:00:50.082Z,2065
2016-05-08T11:01:50.147Z,2070
2016-05-08T11:02:50.352Z,2110
2016-05-08T11:03:50.402Z,2160
2016-05-08T11:04:50.451Z,2195
2016-05-08T11:05:50.345Z,2155
2016-05-08T11:06:50.396Z,2120
2016-05-08T11:07:50.601Z,2060
2016-05-08T11:08:50.650Z,2040
2016-05-08T11:09:50.731Z,2060
2016-05-08T11:10:50.593Z,2085
2016-05-08T11:11:50.815Z,2070
2016-05-08T11:12:51.582Z,2060
2016-05-08T11:13:50.929Z,2070
2016-05-08T11:14:50.807Z,2070
2016-05-08T11:15:51.029Z,2040
2016-05-08T11:16:51.094Z,1990
2016-05-08T11:17:51.143Z,1940
2016-05-08T11:18:51.178Z,1945
2016-05-08T11:19:51.242Z,1950
2016-05-08T11:20:51.292Z,1965
2016-05-08T11:21:51.341Z,1960
2016-05-08T11:22:51.406Z,1965
2016-05-08T11:23:51.472Z,1955
2016-05-08T11:24:51.037Z,1935
2016-05-08T11:25:51.399Z,1975
2016-05-08T11:26:51.433Z,1995
2016-05-08T11:27:52.045Z,2055
2016-05-08T11:28:51.391Z,2070
2016-05-08T11:29:51.769Z,2090
2016-05-08T11:30:51.834Z,2090
2016-05-08T11:31:51.884Z,2090
2016-05-08T11:32:51.903Z,2080
2016-05-08T11:33:51.968Z,2040
2016-05-08T11:34:52.033Z,2020
2016-05-08T11:35:52.066Z,2015
2016-05-08T11:36:52.132Z,2020
2016-05-08T11:37:52.182Z,2010
2016-05-08T11:38:52.231Z,1985
2016-05-08T11:39:52.265Z,1930
2016-05-08T11:40:52.330Z,1850
2016-05-08T11:41:52.379Z,1770
2016-05-08T11:42:53.195Z,1710
2016-05-08T11:43:52.338Z,1720
2016-05-08T11:44:52.543Z,1770
2016-05-08T11:45:52.578Z,1880
2016-05-08T11:46:52.658Z,2000
2016-05-08T11:47:52.741Z,2085
2016-05-08T11:48:52.833Z,2095
2016-05-08T11:49:52.923Z,2080
2016-05-08T11:50:53.031Z,1985
2016-05-08T11:51:53.122Z,1875
2016-05-08T11:52:53.021Z,1790
2016-05-08T11:53:53.258Z,1720
2016-05-08T11:54:53.181Z,1745
2016-05-08T11:55:53.089Z,1845
2016-05-08T11:56:53.450Z,1950
2016-05-08T11:57:53.617Z,1995
2016-05-08T11:58:53.610Z,2000
2016-05-08T11:59:53.618Z,1980
2016-05-08T12:00:53.688Z,2000
2016-05-08T12:01:53.759Z,2080
2016-05-08T12:02:53.655Z,2155
2016-05-08T12:03:53.863Z,2190
2016-05-08T12:04:53.914Z,2175
2016-05-08T12:05:53.825Z,2135
2016-05-08T12:06:54.033Z,2100
2016-05-08T12:07:54.083Z,2115
2016-05-08T12:08:54.009Z,2120
2016-05-08T12:09:54.184Z,2095
2016-05-08T12:10:54.078Z,2015
2016-05-08T12:11:53.973Z,1955
2016-05-08T12:12:54.334Z,1915
2016-05-08T12:13:54.508Z,1930
2016-05-08T12:14:54.309Z,1935
2016-05-08T12:15:54.358Z,1965
2016-05-08T12:16:54.564Z,2030
2016-05-08T12:17:54.613Z,2065
2016-05-08T12:18:54.664Z,2100
2016-05-08T12:19:54.573Z,2070
2016-05-08T12:20:54.622Z,2030
2016-05-08T12:21:54.515Z,2065
2016-05-08T12:22:54.752Z,2085
2016-05-08T12:23:54.770Z,2110
2016-05-08T12:24:54.991Z,2115
2016-05-08T12:25:55.041Z,2080
2016-05-08T12:26:55.106Z,2070
2016-05-08T12:27:55.141Z,2070
2016-05-08T12:28:56.158Z,2085
2016-05-08T12:29:55.099Z,2070
2016-05-08T12:30:55.305Z,2035
2016-05-08T12:31:55.213Z,2000
2016-05-08T12:32:55.263Z,2020
2016-05-08T12:33:55.312Z,2050
2016-05-08T12:34:55.222Z,2080
2016-05-08T12:35:55.428Z,2085
2016-05-08T12:36:55.477Z,2080
2016-05-08T12:37:55.543Z,2095
2016-05-08T12:38:55.732Z,2125
2016-05-08T12:39:55.485Z,2120
2016-05-08T12:40:55.848Z,2070
2016-05-08T12:41:55.584Z,1305
2016-05-08T12:42:55.634Z,1275
2016-05-08T12:43:56.215Z,1790
2016-05-08T12:44:56.061Z,560
2016-05-08T12:45:55.954Z,450
2016-05-08T12:46:55.832Z,810
2016-05-08T12:47:56.069Z,1340
2016-05-08T12:48:56.275Z,1960
2016-05-08T12:49:56.324Z,1710
2016-05-08T12:50:56.374Z,2045
2016-05-08T12:51:56.424Z,2040
2016-05-08T12:52:56.473Z,1990
2016-05-08T12:53:56.367Z,1965
2016-05-08T12:54:56.572Z,2005
2016-05-08T12:55:56.309Z,2040
2016-05-08T12:56:56.671Z,2070
2016-05-08T12:57:56.736Z,2030
2016-05-08T12:58:57.208Z,1995
2016-05-08T12:59:56.695Z,1985
2016-05-08T13:00:56.886Z,2010
2016-05-08T13:01:56.779Z,2015
2016-05-08T13:02:56.672Z,1995
2016-05-08T13:03:56.877Z,1910
2016-05-08T13:04:57.083Z,1890
2016-05-08T13:05:57.008Z,1905
2016-05-08T13:06:57.042Z,1975
2016-05-08T13:07:57.091Z,1985
2016-05-08T13:08:57.001Z,1925
2016-05-08T13:09:57.410Z,1855
2016-05-08T13:10:57.256Z,1855
2016-05-08T13:11:57.305Z,1925
2016-05-08T13:12:57.527Z,2010
2016-05-08T13:13:57.936Z,2060
2016-05-08T13:14:57.454Z,2100
2016-05-08T13:15:57.519Z,2155
2016-05-08T13:16:57.585Z,2180
2016-05-08T13:17:57.634Z,2155
2016-05-08T13:18:57.840Z,2040
2016-05-08T13:19:57.889Z,1940
2016-05-08T13:20:58.189Z,1890
2016-05-08T13:21:57.676Z,1895
2016-05-08T13:22:58.069Z,1900
2016-05-08T13:23:57.775Z,1870
2016-05-08T13:24:58.184Z,1780
2016-05-08T13:25:58.202Z,1740
2016-05-08T13:26:58.314Z,1750
2016-05-08T13:27:58.317Z,1805
2016-05-08T13:28:58.383Z,1810
2016-05-08T13:29:58.260Z,1810
2016-05-08T13:30:58.466Z,845
2016-05-08T13:31:58.516Z,1870
2016-05-08T13:32:58.424Z,1875
2016-05-08T13:33:58.630Z,525
2016-05-08T13:34:58.539Z,580
2016-05-08T13:35:58.432Z,230
2016-05-08T13:37:00.779Z,755
2016-05-08T13:37:58.844Z,215
2016-05-08T13:38:58.738Z,975
2016-05-08T13:39:58.959Z,565
2016-05-08T13:40:59.024Z,445
2016-05-08T13:41:59.043Z,600
2016-05-08T13:43:00.404Z,500
2016-05-08T13:43:59.282Z,320
2016-05-08T13:44:58.895Z,185
2016-05-08T13:45:59.240Z,165
2016-05-08T13:46:59.321Z,205
2016-05-08T13:47:59.027Z,180
2016-05-08T13:48:59.248Z,205
2016-05-08T13:49:59.440Z,530
2016-05-08T13:50:59.691Z,390
2016-05-08T13:51:59.539Z,885
2016-05-08T13:52:59.572Z,880
2016-05-08T13:53:59.309Z,1000
2016-05-08T13:54:59.656Z,1200